createdAt,value
2023-05-10T00:02:19.961Z,7.28
2023-05-10T00:04:46.634Z,7.28
2023-05-10T00:07:13.366Z,7.38
2023-05-10T00:09:40.066Z,7.20
2023-05-10T00:12:06.940Z,7.11
2023-05-10T00:14:33.567Z,7.12
2023-05-10T00:17:00.254Z,7.11
2023-05-10T00:19:26.986Z,6.99
2023-05-10T00:21:53.844Z,6.95
2023-05-10T00:24:20.527Z,7.00
2023-05-10T00:26:47.627Z,6.98
2023-05-10T00:29:14.382Z,6.88
2023-05-10T00:31:41.097Z,6.76
2023-05-10T00:34:07.853Z,6.76
2023-05-10T00:36:34.501Z,6.78
2023-05-10T00:39:01.586Z,6.78
2023-05-10T00:41:28.530Z,6.74
2023-05-10T00:43:55.258Z,6.71
2023-05-10T00:46:22.987Z,6.76
2023-05-10T00:48:50.200Z,6.72
2023-05-10T00:51:17.094Z,6.70
2023-05-10T00:53:46.529Z,6.62
2023-05-10T00:56:14.076Z,6.60
2023-05-10T00:58:41.257Z,6.47
2023-05-10T01:01:08.945Z,6.21
2023-05-10T01:03:37.041Z,6.62
2023-05-10T01:06:04.517Z,6.41
2023-05-10T01:08:31.304Z,6.37
2023-05-10T01:10:58.579Z,6.37
2023-05-10T01:13:39.041Z,6.36
2023-05-10T01:16:07.597Z,6.35
2023-05-10T01:18:37.741Z,6.30
2023-05-10T01:21:34.198Z,6.29
2023-05-10T01:24:23.940Z,6.31
2023-05-10T01:26:50.607Z,6.30
2023-05-10T01:29:36.051Z,6.26
2023-05-10T01:32:11.642Z,6.26
2023-05-10T01:34:51.635Z,6.11
2023-05-10T01:37:26.451Z,6.17
2023-05-10T01:40:19.683Z,6.16
2023-05-10T01:42:53.071Z,6.19
2023-05-10T01:45:28.572Z,6.17
2023-05-10T01:48:10.759Z,6.05
2023-05-10T01:50:40.867Z,6.00
2023-05-10T01:53:09.034Z,6.06
2023-05-10T01:55:43.974Z,6.02
2023-05-10T01:58:14.248Z,5.83
2023-05-10T02:00:46.026Z,5.85
2023-05-10T02:03:14.967Z,5.93
2023-05-10T02:05:43.074Z,5.91
2023-05-10T02:08:10.812Z,5.65
2023-05-10T02:10:38.906Z,5.84
2023-05-10T02:13:08.440Z,5.77
2023-05-10T02:15:36.392Z,5.85
2023-05-10T02:18:05.092Z,5.69
2023-05-10T02:20:33.482Z,5.69
2023-05-10T02:23:01.090Z,5.60
2023-05-10T02:25:28.587Z,5.59
2023-05-10T02:27:58.055Z,5.91
2023-05-10T02:30:25.794Z,5.73
2023-05-10T02:32:53.444Z,5.60
2023-05-10T02:35:21.071Z,5.56
2023-05-10T02:37:49.007Z,5.55
2023-05-10T02:40:17.988Z,5.48
2023-05-10T02:42:46.619Z,5.51
2023-05-10T02:45:16.501Z,5.42
2023-05-10T02:47:43.388Z,5.28
2023-05-10T02:50:10.729Z,5.42
2023-05-10T02:52:54.906Z,5.36
2023-05-10T02:55:26.665Z,5.27
2023-05-10T02:58:02.146Z,5.52
2023-05-10T03:00:29.545Z,5.47
2023-05-10T03:02:56.460Z,5.43
2023-05-10T03:05:23.498Z,5.38
2023-05-10T03:07:50.828Z,5.22
2023-05-10T03:10:19.075Z,5.16
2023-05-10T03:12:49.272Z,5.25
2023-05-10T03:15:15.854Z,5.27
2023-05-10T03:17:51.524Z,5.53
2023-05-10T03:20:27.070Z,5.42
2023-05-10T03:23:04.014Z,5.30
2023-05-10T03:25:32.796Z,5.19
2023-05-10T03:28:03.501Z,5.13
2023-05-10T03:30:31.244Z,5.24
2023-05-10T03:32:58.215Z,5.40
2023-05-10T03:35:24.945Z,5.27
2023-05-10T03:37:51.627Z,5.28
2023-05-10T03:40:18.701Z,5.25
2023-05-10T03:42:45.657Z,5.18
2023-05-10T03:45:12.308Z,5.10
2023-05-10T03:47:39.026Z,5.01
2023-05-10T03:50:06.548Z,4.97
2023-05-10T03:52:33.263Z,5.12
2023-05-10T03:54:59.946Z,5.06
2023-05-10T03:57:26.650Z,5.12
2023-05-10T03:59:53.327Z,5.11
2023-05-10T04:02:20.052Z,5.09
2023-05-10T04:04:46.718Z,5.34
2023-05-10T04:07:13.446Z,5.36
2023-05-10T04:09:40.165Z,5.52
2023-05-10T04:12:08.439Z,5.70
2023-05-10T04:14:36.196Z,5.88
2023-05-10T04:17:03.001Z,6.16
2023-05-10T04:19:33.033Z,6.29
2023-05-10T04:21:59.907Z,6.47
2023-05-10T04:24:26.609Z,6.60
2023-05-10T04:26:53.616Z,6.56
2023-05-10T04:29:20.768Z,6.62
2023-05-10T04:31:47.697Z,7.07
2023-05-10T04:34:14.403Z,7.10
2023-05-10T04:36:41.175Z,7.11
2023-05-10T04:39:08.160Z,7.18
2023-05-10T04:41:34.922Z,7.31
2023-05-10T04:44:01.588Z,7.49
2023-05-10T04:46:28.353Z,7.66
2023-05-10T04:48:55.045Z,7.69
2023-05-10T04:51:21.813Z,7.80
2023-05-10T04:54:01.543Z,7.88
2023-05-10T04:56:32.446Z,7.89
2023-05-10T04:58:59.288Z,7.88
2023-05-10T05:01:26.069Z,8.02
2023-05-10T05:03:54.183Z,8.32
2023-05-10T05:06:22.280Z,8.33
2023-05-10T05:08:50.608Z,8.33
2023-05-10T05:11:18.254Z,8.53
2023-05-10T05:13:45.025Z,8.47
2023-05-10T05:16:12.599Z,8.59
2023-05-10T05:18:39.944Z,8.61
2023-05-10T05:21:20.234Z,8.73
2023-05-10T05:23:47.202Z,8.74
2023-05-10T05:26:14.028Z,8.99
2023-05-10T05:28:40.716Z,9.10
2023-05-10T05:31:11.464Z,9.16
2023-05-10T05:33:38.517Z,9.17
2023-05-10T05:36:06.646Z,9.46
2023-05-10T05:38:33.684Z,9.57
2023-05-10T05:41:00.427Z,9.68
2023-05-10T05:43:27.368Z,9.74
2023-05-10T05:45:59.058Z,9.73
2023-05-10T05:48:26.062Z,9.67
2023-05-10T05:50:57.001Z,9.76
2023-05-10T05:53:24.435Z,9.92
2023-05-10T05:55:54.883Z,10.07
2023-05-10T05:58:22.676Z,10.15
2023-05-10T06:00:49.997Z,10.15
2023-05-10T06:03:16.875Z,10.29
2023-05-10T06:05:43.665Z,10.28
2023-05-10T06:08:10.886Z,10.21
2023-05-10T06:10:38.003Z,10.28
2023-05-10T06:13:04.756Z,10.42
2023-05-10T06:15:31.579Z,10.63
2023-05-10T06:17:58.303Z,10.60
2023-05-10T06:20:25.128Z,10.46
2023-05-10T06:22:51.826Z,10.44
2023-05-10T06:25:19.545Z,10.70
2023-05-10T06:27:49.789Z,10.69
2023-05-10T06:30:17.791Z,10.85
2023-05-10T06:32:45.203Z,11.15
2023-05-10T06:35:12.053Z,11.14
2023-05-10T06:37:38.731Z,11.18
2023-05-10T06:40:06.906Z,11.40
2023-05-10T06:42:33.596Z,11.39
2023-05-10T06:45:00.252Z,11.35
2023-05-10T06:47:27.082Z,11.50
2023-05-10T06:49:53.779Z,11.58
2023-05-10T06:52:20.528Z,11.48
2023-05-10T06:54:47.241Z,11.57
2023-05-10T06:57:27.593Z,11.60
2023-05-10T06:59:58.172Z,11.67
2023-05-10T07:02:24.861Z,11.69
2023-05-10T07:04:53.001Z,11.75
2023-05-10T07:07:20.099Z,11.90
2023-05-10T07:09:46.926Z,11.95
2023-05-10T07:12:15.206Z,12.13
2023-05-10T07:14:43.070Z,12.17
2023-05-10T07:17:10.366Z,12.09
2023-05-10T07:19:37.378Z,12.51
2023-05-10T07:22:04.168Z,12.49
2023-05-10T07:24:32.372Z,12.60
2023-05-10T07:26:59.091Z,12.56
2023-05-10T07:29:26.246Z,12.67
2023-05-10T07:31:53.116Z,12.79
2023-05-10T07:34:19.954Z,12.78
2023-05-10T07:36:46.858Z,12.83
2023-05-10T07:39:21.212Z,12.97
2023-05-10T07:41:51.344Z,12.83
2023-05-10T07:44:20.264Z,13.04
2023-05-10T07:46:48.735Z,13.01
2023-05-10T07:49:15.485Z,13.13
2023-05-10T07:51:43.497Z,13.47
2023-05-10T07:54:10.257Z,13.57
2023-05-10T07:56:37.288Z,13.63
2023-05-10T07:59:09.702Z,13.78
2023-05-10T08:01:37.753Z,13.80
2023-05-10T08:04:04.590Z,14.01
2023-05-10T08:06:31.515Z,14.47
2023-05-10T08:08:58.702Z,14.65
2023-05-10T08:11:26.047Z,15.37
2023-05-10T08:13:53.046Z,15.46
2023-05-10T08:16:20.099Z,15.33
2023-05-10T08:18:48.204Z,15.56
2023-05-10T08:21:16.004Z,15.64
2023-05-10T08:23:44.953Z,15.68
2023-05-10T08:26:12.206Z,16.02
2023-05-10T08:28:39.280Z,16.17
2023-05-10T08:31:06.613Z,16.62
2023-05-10T08:33:33.572Z,16.85
2023-05-10T08:36:00.313Z,17.11
2023-05-10T08:38:27.153Z,17.29
2023-05-10T08:40:57.694Z,17.19
2023-05-10T08:43:31.345Z,17.62
2023-05-10T08:46:02.380Z,17.91
2023-05-10T08:48:31.084Z,17.74
2023-05-10T08:51:01.036Z,18.00
2023-05-10T08:53:29.916Z,18.22
2023-05-10T08:55:56.816Z,18.43
2023-05-10T08:58:23.744Z,18.67
2023-05-10T09:00:54.146Z,18.99
2023-05-10T09:03:21.103Z,19.14
2023-05-10T09:05:48.775Z,18.87
2023-05-10T09:08:17.456Z,18.88
2023-05-10T09:10:49.386Z,18.59
2023-05-10T09:13:16.781Z,18.56
2023-05-10T09:15:45.814Z,18.30
2023-05-10T09:18:13.460Z,18.36
2023-05-10T09:20:40.296Z,17.88
2023-05-10T09:23:07.154Z,17.42
2023-05-10T09:25:38.242Z,17.16
2023-05-10T09:28:08.421Z,16.69
2023-05-10T09:30:35.326Z,16.44
2023-05-10T09:33:02.866Z,16.32
2023-05-10T09:35:33.265Z,16.06
2023-05-10T09:38:06.665Z,16.17
2023-05-10T09:40:33.844Z,15.99
2023-05-10T09:43:10.033Z,16.06
2023-05-10T09:45:38.821Z,16.03
2023-05-10T09:48:06.262Z,15.82
2023-05-10T09:50:33.237Z,15.68
2023-05-10T09:53:01.896Z,15.75
2023-05-10T09:55:41.803Z,15.69
2023-05-10T09:58:11.935Z,15.51
2023-05-10T10:00:42.872Z,15.75
2023-05-10T10:03:17.466Z,15.55
2023-05-10T10:05:45.549Z,15.44
2023-05-10T10:08:13.480Z,15.45
2023-05-10T10:10:47.062Z,15.29
2023-05-10T10:13:14.843Z,15.35
2023-05-10T10:15:43.125Z,15.01
2023-05-10T10:18:14.313Z,15.18
2023-05-10T10:20:41.946Z,14.92
2023-05-10T10:23:09.643Z,14.91
2023-05-10T10:25:36.725Z,14.90
2023-05-10T10:28:28.031Z,15.13
2023-05-10T10:30:57.766Z,15.03
2023-05-10T10:33:53.127Z,15.08
2023-05-10T10:36:20.399Z,14.85
2023-05-10T10:38:47.056Z,14.95
2023-05-10T10:41:33.429Z,15.01
2023-05-10T10:44:40.233Z,14.97
2023-05-10T10:47:13.323Z,14.53
2023-05-10T10:49:49.111Z,14.52
2023-05-10T10:52:24.959Z,14.68
2023-05-10T10:54:53.424Z,14.70
2023-05-10T10:57:22.741Z,14.58
2023-05-10T10:59:50.023Z,14.41
2023-05-10T11:02:44.191Z,14.30
2023-05-10T11:05:42.801Z,14.19
2023-05-10T11:08:20.112Z,14.30
2023-05-10T11:10:55.588Z,14.31
2023-05-10T11:13:42.736Z,14.55
2023-05-10T11:16:21.294Z,14.41
2023-05-10T11:19:11.640Z,14.55
2023-05-10T11:22:12.197Z,14.62
2023-05-10T11:24:38.898Z,14.74
2023-05-10T11:27:07.066Z,14.69
2023-05-10T11:29:33.718Z,14.56
2023-05-10T11:32:01.172Z,14.49
2023-05-10T11:34:36.464Z,14.35
2023-05-10T11:37:03.293Z,14.21
2023-05-10T11:39:31.447Z,14.47
2023-05-10T11:41:59.386Z,14.52
2023-05-10T11:44:32.980Z,14.44
2023-05-10T11:47:03.226Z,14.51
2023-05-10T11:49:30.104Z,14.27
2023-05-10T11:52:08.055Z,14.37
2023-05-10T11:54:37.809Z,14.33
2023-05-10T11:57:05.229Z,14.35
2023-05-10T11:59:32.024Z,14.19
2023-05-10T12:01:59.089Z,14.00
2023-05-10T12:04:27.048Z,13.40
2023-05-10T12:06:53.884Z,13.62
2023-05-10T12:09:31.486Z,13.70
2023-05-10T12:12:06.967Z,13.73
2023-05-10T12:14:36.207Z,13.91
2023-05-10T12:17:02.928Z,13.56
2023-05-10T12:19:29.707Z,13.77
2023-05-10T12:21:56.436Z,13.83
2023-05-10T12:24:23.215Z,14.01
2023-05-10T12:29:35.779Z,14.32
2023-05-10T12:32:03.604Z,14.05
2023-05-10T12:34:35.384Z,14.41
2023-05-10T12:37:03.804Z,14.31
2023-05-10T12:39:43.763Z,14.32
2023-05-10T12:42:10.934Z,14.29
2023-05-10T12:44:37.634Z,14.34
2023-05-10T12:47:04.349Z,14.47
2023-05-10T12:49:31.141Z,14.47
2023-05-10T12:51:57.839Z,14.56
2023-05-10T12:54:24.852Z,14.73
2023-05-10T12:56:51.646Z,14.76
2023-05-10T12:59:18.271Z,14.78
2023-05-10T13:01:44.963Z,14.92
2023-05-10T13:04:18.932Z,14.89
2023-05-10T13:06:45.716Z,14.92
2023-05-10T13:09:12.453Z,14.99
2023-05-10T13:11:39.329Z,14.86
2023-05-10T13:14:06.186Z,15.04
2023-05-10T13:16:33.112Z,14.96
2023-05-10T13:19:01.951Z,15.27
2023-05-10T13:21:29.086Z,15.22
2023-05-10T13:23:55.754Z,15.35
2023-05-10T13:26:22.528Z,15.35
2023-05-10T13:28:49.966Z,15.49
2023-05-10T13:31:16.736Z,15.51
2023-05-10T13:33:43.462Z,15.70
2023-05-10T13:36:10.210Z,15.96
2023-05-10T13:38:37.193Z,16.16
2023-05-10T13:41:04.083Z,16.29
2023-05-10T13:43:31.219Z,16.49
2023-05-10T13:45:58.043Z,16.73
2023-05-10T13:48:24.745Z,16.81
2023-05-10T13:50:51.422Z,16.73
2023-05-10T13:53:18.098Z,16.69
2023-05-10T13:55:44.847Z,16.42
2023-05-10T13:58:12.571Z,16.11
2023-05-10T14:00:39.289Z,16.01
2023-05-10T14:03:07.511Z,15.75
2023-05-10T14:05:34.302Z,15.76
2023-05-10T14:08:00.920Z,15.40
2023-05-10T14:10:27.609Z,15.47
2023-05-10T14:12:54.213Z,15.36
2023-05-10T14:15:21.068Z,15.34
2023-05-10T14:17:47.755Z,15.33
2023-05-10T14:20:14.499Z,15.43
2023-05-10T14:22:41.528Z,15.25
2023-05-10T14:25:08.847Z,15.54
2023-05-10T14:27:35.777Z,15.55
2023-05-10T14:30:02.481Z,15.60
2023-05-10T14:32:29.550Z,15.61
2023-05-10T14:34:56.812Z,15.83
2023-05-10T14:37:23.534Z,15.80
2023-05-10T14:39:50.247Z,15.83
2023-05-10T14:42:16.980Z,15.97
2023-05-10T14:44:43.659Z,15.87
2023-05-10T14:47:12.084Z,15.57
2023-05-10T14:49:40.083Z,15.91
2023-05-10T14:52:06.765Z,16.04
2023-05-10T14:54:34.610Z,16.10
2023-05-10T14:57:01.741Z,15.94
2023-05-10T14:59:28.401Z,16.07
2023-05-10T15:01:55.490Z,16.11
2023-05-10T15:04:22.614Z,16.11
2023-05-10T15:06:49.718Z,16.14
2023-05-10T15:09:17.479Z,16.15
2023-05-10T15:11:45.523Z,16.10
2023-05-10T15:14:12.222Z,15.89
2023-05-10T15:16:38.928Z,15.76
2023-05-10T15:19:05.763Z,15.89
2023-05-10T15:21:39.665Z,15.57
2023-05-10T15:24:06.990Z,15.67
2023-05-10T15:26:33.692Z,15.64
2023-05-10T15:29:00.488Z,15.24
2023-05-10T15:31:28.229Z,15.53
2023-05-10T15:34:01.942Z,15.51
2023-05-10T15:36:28.631Z,15.46
2023-05-10T15:38:55.787Z,15.55
2023-05-10T15:41:25.704Z,15.47
2023-05-10T15:43:52.441Z,15.63
2023-05-10T15:46:19.173Z,15.45
2023-05-10T15:48:45.903Z,15.57
2023-05-10T15:51:12.664Z,15.68
2023-05-10T15:53:46.652Z,15.54
2023-05-10T15:56:19.833Z,15.73
2023-05-10T15:58:46.930Z,15.76
2023-05-10T16:01:13.870Z,15.68
2023-05-10T16:03:40.647Z,15.54
2023-05-10T16:06:07.506Z,15.57
2023-05-10T16:08:34.284Z,15.45
2023-05-10T16:11:02.176Z,15.39
2023-05-10T16:13:29.596Z,15.24
2023-05-10T16:15:57.690Z,15.30
2023-05-10T16:18:24.673Z,15.34
2023-05-10T16:20:51.924Z,15.36
2023-05-10T16:23:18.756Z,15.41
2023-05-10T16:25:45.624Z,15.39
2023-05-10T16:28:12.356Z,15.31
2023-05-10T16:30:39.081Z,15.22
2023-05-10T16:33:05.839Z,15.09
2023-05-10T16:35:32.711Z,15.01
2023-05-10T16:38:00.495Z,15.05
2023-05-10T16:40:27.136Z,14.88
2023-05-10T16:42:53.827Z,14.80
2023-05-10T16:45:20.661Z,14.75
2023-05-10T16:47:47.358Z,14.63
2023-05-10T16:50:15.099Z,14.67
2023-05-10T16:52:53.759Z,14.77
2023-05-10T16:55:21.514Z,14.72
2023-05-10T16:57:49.696Z,14.47
2023-05-10T17:00:16.797Z,14.48
2023-05-10T17:02:43.598Z,14.36
2023-05-10T17:05:10.533Z,14.34
2023-05-10T17:07:37.420Z,14.16
2023-05-10T17:10:04.425Z,14.16
2023-05-10T17:12:31.071Z,14.21
2023-05-10T17:14:58.756Z,14.19
2023-05-10T17:17:25.814Z,14.41
2023-05-10T17:19:52.846Z,14.17
2023-05-10T17:22:19.660Z,14.10
2023-05-10T17:24:46.880Z,14.25
2023-05-10T17:27:14.061Z,13.97
2023-05-10T17:29:40.859Z,14.06
2023-05-10T17:32:09.437Z,14.06
2023-05-10T17:34:39.250Z,13.92
2023-05-10T17:37:05.920Z,13.91
2023-05-10T17:39:34.272Z,13.79
2023-05-10T17:42:01.062Z,13.70
2023-05-10T17:44:28.061Z,13.35
2023-05-10T17:46:54.758Z,13.41
2023-05-10T17:49:21.498Z,13.36
2023-05-10T17:51:48.328Z,13.44
2023-05-10T17:54:15.205Z,13.42
2023-05-10T17:56:42.190Z,13.43
2023-05-10T17:59:09.029Z,13.22
2023-05-10T18:01:36.137Z,13.21
2023-05-10T18:04:02.952Z,13.17
2023-05-10T18:06:29.734Z,13.09
2023-05-10T18:08:56.519Z,12.96
2023-05-10T18:11:23.741Z,12.98
2023-05-10T18:13:50.518Z,13.04
2023-05-10T18:16:17.330Z,12.95
2023-05-10T18:18:44.112Z,12.87
2023-05-10T18:21:11.263Z,12.92
2023-05-10T18:23:37.952Z,12.92
2023-05-10T18:26:04.846Z,12.80
2023-05-10T18:28:31.725Z,12.66
2023-05-10T18:30:58.575Z,12.74
2023-05-10T18:33:25.352Z,12.73
2023-05-10T18:35:52.284Z,12.55
2023-05-10T18:38:19.613Z,12.60
2023-05-10T18:40:46.495Z,12.65
2023-05-10T18:43:13.350Z,12.49
2023-05-10T18:45:40.152Z,12.32
2023-05-10T18:48:07.969Z,12.36
2023-05-10T18:50:34.805Z,12.31
2023-05-10T18:53:01.507Z,12.35
2023-05-10T18:55:28.778Z,12.24
2023-05-10T18:57:55.493Z,12.25
2023-05-10T19:00:22.918Z,12.18
2023-05-10T19:02:50.644Z,12.08
2023-05-10T19:05:17.771Z,12.18
2023-05-10T19:07:44.990Z,12.32
2023-05-10T19:10:15.324Z,12.27
2023-05-10T19:12:42.811Z,12.14
2023-05-10T19:15:10.986Z,12.24
2023-05-10T19:17:43.352Z,12.06
2023-05-10T19:20:12.083Z,12.03
2023-05-10T19:22:54.339Z,12.01
2023-05-10T19:25:29.725Z,12.01
2023-05-10T19:27:59.774Z,11.96
2023-05-10T19:30:26.953Z,12.06
2023-05-10T19:32:54.312Z,12.05
2023-05-10T19:35:21.367Z,12.01
2023-05-10T19:37:49.390Z,12.03
2023-05-10T19:40:17.665Z,12.12
2023-05-10T19:42:45.110Z,12.03
2023-05-10T19:45:12.404Z,11.91
2023-05-10T19:47:39.725Z,12.02
2023-05-10T19:50:08.382Z,11.91
2023-05-10T19:52:35.577Z,11.94
2023-05-10T19:55:02.355Z,11.89
2023-05-10T19:57:29.489Z,11.86
2023-05-10T19:59:56.470Z,11.97
2023-05-10T20:02:23.476Z,11.84
2023-05-10T20:04:50.967Z,11.87
2023-05-10T20:07:18.072Z,11.83
2023-05-10T20:09:44.953Z,11.83
2023-05-10T20:12:12.333Z,11.89
2023-05-10T20:14:39.634Z,11.89
2023-05-10T20:17:06.541Z,11.85
2023-05-10T20:19:34.185Z,11.81
2023-05-10T20:22:01.603Z,11.83
2023-05-10T20:24:28.714Z,11.77
2023-05-10T20:26:55.554Z,11.58
2023-05-10T20:29:22.529Z,11.80
2023-05-10T20:31:49.340Z,11.72
2023-05-10T20:34:16.125Z,11.65
2023-05-10T20:36:43.124Z,11.67
2023-05-10T20:39:10.544Z,11.82
2023-05-10T20:41:37.283Z,11.71
2023-05-10T20:44:05.663Z,11.60
2023-05-10T20:46:33.178Z,11.62
2023-05-10T20:49:00.217Z,11.64
2023-05-10T20:51:29.032Z,11.72
2023-05-10T20:53:57.219Z,11.77
2023-05-10T20:56:23.947Z,11.83
2023-05-10T20:58:50.629Z,11.68
2023-05-10T21:01:17.355Z,11.74
2023-05-10T21:03:44.076Z,11.67
2023-05-10T21:06:10.752Z,11.60
2023-05-10T21:08:37.456Z,11.74
2023-05-10T21:11:06.933Z,11.64
2023-05-10T21:13:33.705Z,11.70
2023-05-10T21:16:00.681Z,11.69
2023-05-10T21:18:27.565Z,11.77
2023-05-10T21:20:54.490Z,11.72
2023-05-10T21:23:21.167Z,11.60
2023-05-10T21:25:47.945Z,11.55
2023-05-10T21:28:14.666Z,11.64
2023-05-10T21:30:41.409Z,11.51
2023-05-10T21:33:08.252Z,11.56
2023-05-10T21:35:34.985Z,11.52
2023-05-10T21:38:01.832Z,11.42
2023-05-10T21:40:29.080Z,11.43
2023-05-10T21:42:55.863Z,11.60
2023-05-10T21:45:22.671Z,11.47
2023-05-10T21:47:49.550Z,11.68
2023-05-10T21:50:16.488Z,11.48
2023-05-10T21:52:43.683Z,11.51
2023-05-10T21:55:10.544Z,11.48
2023-05-10T21:57:37.256Z,11.49
2023-05-10T22:00:05.028Z,11.54
2023-05-10T22:02:31.901Z,11.54
2023-05-10T22:04:58.702Z,11.48
2023-05-10T22:07:25.448Z,11.37
2023-05-10T22:09:52.220Z,11.35
2023-05-10T22:12:18.987Z,11.55
2023-05-10T22:14:45.990Z,11.42
2023-05-10T22:17:12.841Z,11.54
2023-05-10T22:19:39.747Z,11.48
2023-05-10T22:22:06.519Z,11.42
2023-05-10T22:24:33.356Z,11.40
2023-05-10T22:27:00.044Z,11.29
2023-05-10T22:29:26.801Z,11.24
2023-05-10T22:31:53.568Z,11.37
2023-05-10T22:34:20.278Z,11.32
2023-05-10T22:36:46.997Z,11.24
2023-05-10T22:39:13.706Z,11.23
2023-05-10T22:41:40.479Z,11.04
2023-05-10T22:44:08.364Z,11.10
2023-05-10T22:46:36.459Z,11.11
2023-05-10T22:49:03.327Z,11.08
2023-05-10T22:51:30.078Z,11.01
2023-05-10T22:53:56.770Z,10.99
2023-05-10T22:56:23.541Z,10.95
2023-05-10T22:58:51.153Z,10.96
2023-05-10T23:03:33.479Z,10.87
2023-05-10T23:06:00.325Z,10.95
2023-05-10T23:08:27.143Z,10.87
2023-05-10T23:10:53.926Z,10.84
2023-05-10T23:13:21.999Z,10.82
2023-05-10T23:15:48.722Z,10.89
2023-05-10T23:18:15.647Z,10.95
2023-05-10T23:20:45.719Z,10.88
2023-05-10T23:23:12.596Z,10.67
2023-05-10T23:25:39.391Z,10.85
2023-05-10T23:28:06.196Z,10.80
2023-05-10T23:30:32.924Z,10.95
2023-05-10T23:32:59.802Z,10.89
2023-05-10T23:35:26.572Z,10.73
2023-05-10T23:37:53.312Z,10.78
2023-05-10T23:40:20.185Z,10.70
2023-05-10T23:42:47.205Z,10.77
2023-05-10T23:45:13.956Z,10.65
2023-05-10T23:47:40.668Z,10.88
2023-05-10T23:50:08.000Z,10.87
2023-05-10T23:52:34.784Z,10.85
2023-05-10T23:55:01.527Z,10.89
2023-05-10T23:57:28.364Z,10.84
2023-05-10T23:59:55.085Z,10.99
